sensor_id;sensor_type;location;lat;lon;timestamp;pressure;altitude;pressure_sealevel;temperature
70050;BMP180;57391;51.306;22.680;2022-09-09T00:02:08;99568.80;;;12.08
70050;BMP180;57391;51.306;22.680;2022-09-09T00:04:39;99575.80;;;12.00
70050;BMP180;57391;51.306;22.680;2022-09-09T00:07:48;99572.60;;;12.00
70050;BMP180;57391;51.306;22.680;2022-09-09T00:10:37;99567.20;;;12.02
70050;BMP180;57391;51.306;22.680;2022-09-09T00:13:37;99570.80;;;12.08
70050;BMP180;57391;51.306;22.680;2022-09-09T00:16:25;99573.80;;;12.10
70050;BMP180;57391;51.306;22.680;2022-09-09T00:22:19;99552.40;;;12.10
70050;BMP180;57391;51.306;22.680;2022-09-09T00:24:53;99552.20;;;12.14
70050;BMP180;57391;51.306;22.680;2022-09-09T00:27:45;99554.40;;;12.20
70050;BMP180;57391;51.306;22.680;2022-09-09T00:30:31;99547.00;;;12.20
70050;BMP180;57391;51.306;22.680;2022-09-09T00:33:03;99543.00;;;12.20
70050;BMP180;57391;51.306;22.680;2022-09-09T00:35:59;99536.20;;;12.20
70050;BMP180;57391;51.306;22.680;2022-09-09T00:38:38;99545.00;;;12.20
70050;BMP180;57391;51.306;22.680;2022-09-09T00:44:32;99523.20;;;12.12
70050;BMP180;57391;51.306;22.680;2022-09-09T00:47:50;99514.60;;;12.10
70050;BMP180;57391;51.306;22.680;2022-09-09T00:53:23;99527.40;;;12.10
70050;BMP180;57391;51.306;22.680;2022-09-09T00:56:17;99528.20;;;12.10
70050;BMP180;57391;51.306;22.680;2022-09-09T00:59:11;99529.40;;;12.10
70050;BMP180;57391;51.306;22.680;2022-09-09T01:01:40;99522.20;;;12.10
70050;BMP180;57391;51.306;22.680;2022-09-09T01:04:16;99522.60;;;12.10
70050;BMP180;57391;51.306;22.680;2022-09-09T01:06:57;99527.20;;;12.10
70050;BMP180;57391;51.306;22.680;2022-09-09T01:12:26;99517.80;;;12.10
70050;BMP180;57391;51.306;22.680;2022-09-09T01:15:24;99517.40;;;12.10
70050;BMP180;57391;51.306;22.680;2022-09-09T01:18:08;99512.80;;;12.10
70050;BMP180;57391;51.306;22.680;2022-09-09T01:23:52;99524.00;;;12.12
70050;BMP180;57391;51.306;22.680;2022-09-09T01:26:35;99519.60;;;12.18
70050;BMP180;57391;51.306;22.680;2022-09-09T01:29:15;99512.60;;;12.20
70050;BMP180;57391;51.306;22.680;2022-09-09T01:31:56;99512.00;;;12.20
70050;BMP180;57391;51.306;22.680;2022-09-09T01:34:38;99513.40;;;12.20
70050;BMP180;57391;51.306;22.680;2022-09-09T01:37:10;99517.00;;;12.30
70050;BMP180;57391;51.306;22.680;2022-09-09T01:39:43;99520.80;;;12.30
70050;BMP180;57391;51.306;22.680;2022-09-09T01:42:16;99519.60;;;12.30
70050;BMP180;57391;51.306;22.680;2022-09-09T01:44:43;99519.80;;;12.30
70050;BMP180;57391;51.306;22.680;2022-09-09T01:47:10;99514.40;;;12.30
70050;BMP180;57391;51.306;22.680;2022-09-09T01:49:57;99523.80;;;12.30
70050;BMP180;57391;51.306;22.680;2022-09-09T01:52:27;99528.00;;;12.30
70050;BMP180;57391;51.306;22.680;2022-09-09T01:54:55;99532.40;;;12.30
70050;BMP180;57391;51.306;22.680;2022-09-09T01:57:59;99531.40;;;12.30
70050;BMP180;57391;51.306;22.680;2022-09-09T02:00:30;99524.20;;;12.30
70050;BMP180;57391;51.306;22.680;2022-09-09T02:03:35;99512.80;;;12.30
70050;BMP180;57391;51.306;22.680;2022-09-09T02:08:50;99506.80;;;12.28
70050;BMP180;57391;51.306;22.680;2022-09-09T02:11:23;99508.20;;;12.22
70050;BMP180;57391;51.306;22.680;2022-09-09T02:14:18;99495.60;;;12.20
70050;BMP180;57391;51.306;22.680;2022-09-09T02:17:02;99489.80;;;12.20
70050;BMP180;57391;51.306;22.680;2022-09-09T02:19:55;99481.60;;;12.20
70050;BMP180;57391;51.306;22.680;2022-09-09T02:22:33;99472.80;;;12.20
70050;BMP180;57391;51.306;22.680;2022-09-09T02:25:03;99471.40;;;12.20
70050;BMP180;57391;51.306;22.680;2022-09-09T02:27:32;99465.80;;;12.20
70050;BMP180;57391;51.306;22.680;2022-09-09T02:30:03;99462.00;;;12.14
70050;BMP180;57391;51.306;22.680;2022-09-09T02:32:56;99455.80;;;12.10
70050;BMP180;57391;51.306;22.680;2022-09-09T02:35:30;99460.80;;;12.10
70050;BMP180;57391;51.306;22.680;2022-09-09T02:38:04;99457.40;;;12.10
70050;BMP180;57391;51.306;22.680;2022-09-09T02:40:33;99463.00;;;12.10
70050;BMP180;57391;51.306;22.680;2022-09-09T02:43:01;99461.60;;;12.10
70050;BMP180;57391;51.306;22.680;2022-09-09T02:46:03;99464.20;;;12.10
70050;BMP180;57391;51.306;22.680;2022-09-09T02:48:51;99465.00;;;12.10
70050;BMP180;57391;51.306;22.680;2022-09-09T02:51:35;99465.00;;;12.02
70050;BMP180;57391;51.306;22.680;2022-09-09T02:54:27;99461.20;;;12.00
70050;BMP180;57391;51.306;22.680;2022-09-09T02:57:17;99452.80;;;12.00
70050;BMP180;57391;51.306;22.680;2022-09-09T02:59:47;99462.40;;;12.00
70050;BMP180;57391;51.306;22.680;2022-09-09T03:02:15;99460.80;;;12.00
70050;BMP180;57391;51.306;22.680;2022-09-09T03:04:43;99464.20;;;12.02
70050;BMP180;57391;51.306;22.680;2022-09-09T03:07:11;99473.40;;;12.00
70050;BMP180;57391;51.306;22.680;2022-09-09T03:09:39;99474.40;;;12.00
70050;BMP180;57391;51.306;22.680;2022-09-09T03:12:06;99472.60;;;12.04
70050;BMP180;57391;51.306;22.680;2022-09-09T03:14:34;99472.20;;;12.08
70050;BMP180;57391;51.306;22.680;2022-09-09T03:17:01;99470.60;;;12.10
70050;BMP180;57391;51.306;22.680;2022-09-09T03:19:30;99472.00;;;12.04
70050;BMP180;57391;51.306;22.680;2022-09-09T03:21:58;99473.60;;;12.00
70050;BMP180;57391;51.306;22.680;2022-09-09T03:24:25;99474.60;;;12.00
70050;BMP180;57391;51.306;22.680;2022-09-09T03:26:52;99470.20;;;12.00
70050;BMP180;57391;51.306;22.680;2022-09-09T03:29:20;99467.60;;;12.00
70050;BMP180;57391;51.306;22.680;2022-09-09T03:31:47;99465.60;;;12.00
70050;BMP180;57391;51.306;22.680;2022-09-09T03:34:14;99464.20;;;12.00
70050;BMP180;57391;51.306;22.680;2022-09-09T03:36:41;99467.20;;;12.00
70050;BMP180;57391;51.306;22.680;2022-09-09T03:39:08;99472.40;;;12.00
70050;BMP180;57391;51.306;22.680;2022-09-09T03:41:35;99481.20;;;12.00
70050;BMP180;57391;51.306;22.680;2022-09-09T03:44:04;99479.80;;;12.00
70050;BMP180;57391;51.306;22.680;2022-09-09T03:46:34;99486.40;;;12.00
70050;BMP180;57391;51.306;22.680;2022-09-09T03:49:01;99482.00;;;12.00
70050;BMP180;57391;51.306;22.680;2022-09-09T03:51:30;99481.40;;;12.06
70050;BMP180;57391;51.306;22.680;2022-09-09T03:53:57;99478.80;;;12.10
70050;BMP180;57391;51.306;22.680;2022-09-09T03:56:25;99482.80;;;12.10
70050;BMP180;57391;51.306;22.680;2022-09-09T03:58:53;99483.00;;;12.10
70050;BMP180;57391;51.306;22.680;2022-09-09T04:01:20;99479.00;;;12.12
70050;BMP180;57391;51.306;22.680;2022-09-09T04:03:46;99476.00;;;12.18
70050;BMP180;57391;51.306;22.680;2022-09-09T04:06:14;99476.20;;;12.20
70050;BMP180;57391;51.306;22.680;2022-09-09T04:08:43;99474.40;;;12.20
70050;BMP180;57391;51.306;22.680;2022-09-09T04:11:11;99471.80;;;12.20
70050;BMP180;57391;51.306;22.680;2022-09-09T04:13:38;99471.40;;;12.20
70050;BMP180;57391;51.306;22.680;2022-09-09T04:16:07;99469.40;;;12.20
70050;BMP180;57391;51.306;22.680;2022-09-09T04:18:35;99477.00;;;12.20
70050;BMP180;57391;51.306;22.680;2022-09-09T04:21:03;99479.00;;;12.20
70050;BMP180;57391;51.306;22.680;2022-09-09T04:23:31;99479.00;;;12.20
70050;BMP180;57391;51.306;22.680;2022-09-09T04:26:02;99476.80;;;12.24
70050;BMP180;57391;51.306;22.680;2022-09-09T04:28:33;99476.40;;;12.26
70050;BMP180;57391;51.306;22.680;2022-09-09T04:31:09;99475.80;;;12.30
70050;BMP180;57391;51.306;22.680;2022-09-09T04:33:38;99471.00;;;12.22
70050;BMP180;57391;51.306;22.680;2022-09-09T04:36:07;99474.40;;;12.28
70050;BMP180;57391;51.306;22.680;2022-09-09T04:38:35;99470.40;;;12.30
70050;BMP180;57391;51.306;22.680;2022-09-09T04:41:04;99472.40;;;12.30
70050;BMP180;57391;51.306;22.680;2022-09-09T04:43:32;99469.20;;;12.30
70050;BMP180;57391;51.306;22.680;2022-09-09T04:46:02;99470.20;;;12.30
70050;BMP180;57391;51.306;22.680;2022-09-09T04:48:30;99474.80;;;12.30
70050;BMP180;57391;51.306;22.680;2022-09-09T04:51:00;99479.00;;;12.30
70050;BMP180;57391;51.306;22.680;2022-09-09T04:53:28;99483.40;;;12.30
70050;BMP180;57391;51.306;22.680;2022-09-09T04:56:14;99483.00;;;12.40
70050;BMP180;57391;51.306;22.680;2022-09-09T04:58:45;99483.80;;;12.40
70050;BMP180;57391;51.306;22.680;2022-09-09T05:01:17;99483.40;;;12.40
70050;BMP180;57391;51.306;22.680;2022-09-09T05:03:46;99486.00;;;12.50
70050;BMP180;57391;51.306;22.680;2022-09-09T05:06:18;99493.00;;;12.50
70050;BMP180;57391;51.306;22.680;2022-09-09T05:08:46;99492.20;;;12.50
70050;BMP180;57391;51.306;22.680;2022-09-09T05:11:28;99494.60;;;12.60
70050;BMP180;57391;51.306;22.680;2022-09-09T05:14:02;99495.60;;;12.60
70050;BMP180;57391;51.306;22.680;2022-09-09T05:16:31;99495.00;;;12.60
70050;BMP180;57391;51.306;22.680;2022-09-09T05:18:58;99492.80;;;12.60
70050;BMP180;57391;51.306;22.680;2022-09-09T05:21:29;99496.00;;;12.68
70050;BMP180;57391;51.306;22.680;2022-09-09T05:23:59;99501.80;;;12.70
70050;BMP180;57391;51.306;22.680;2022-09-09T05:26:27;99498.80;;;12.70
70050;BMP180;57391;51.306;22.680;2022-09-09T05:28:57;99496.40;;;12.70
70050;BMP180;57391;51.306;22.680;2022-09-09T05:31:26;99495.80;;;12.70
70050;BMP180;57391;51.306;22.680;2022-09-09T05:33:55;99498.00;;;12.70
70050;BMP180;57391;51.306;22.680;2022-09-09T05:36:22;99493.20;;;12.70
70050;BMP180;57391;51.306;22.680;2022-09-09T05:38:53;99498.60;;;12.70
70050;BMP180;57391;51.306;22.680;2022-09-09T05:41:23;99493.60;;;12.70
70050;BMP180;57391;51.306;22.680;2022-09-09T05:43:51;99493.20;;;12.68
70050;BMP180;57391;51.306;22.680;2022-09-09T05:46:21;99500.60;;;12.70
70050;BMP180;57391;51.306;22.680;2022-09-09T05:48:51;99501.00;;;12.68
70050;BMP180;57391;51.306;22.680;2022-09-09T05:51:28;99502.20;;;12.70
70050;BMP180;57391;51.306;22.680;2022-09-09T05:54:01;99504.60;;;12.70
70050;BMP180;57391;51.306;22.680;2022-09-09T05:56:31;99498.20;;;12.70
70050;BMP180;57391;51.306;22.680;2022-09-09T05:58:59;99497.00;;;12.70
70050;BMP180;57391;51.306;22.680;2022-09-09T06:01:35;99495.40;;;12.70
70050;BMP180;57391;51.306;22.680;2022-09-09T06:04:02;99495.20;;;12.70
70050;BMP180;57391;51.306;22.680;2022-09-09T06:06:34;99497.00;;;12.60
70050;BMP180;57391;51.306;22.680;2022-09-09T06:09:07;99498.40;;;12.60
70050;BMP180;57391;51.306;22.680;2022-09-09T06:11:39;99504.40;;;12.60
70050;BMP180;57391;51.306;22.680;2022-09-09T06:14:07;99514.40;;;12.60
70050;BMP180;57391;51.306;22.680;2022-09-09T06:16:35;99512.20;;;12.60
70050;BMP180;57391;51.306;22.680;2022-09-09T06:19:06;99515.00;;;12.64
70050;BMP180;57391;51.306;22.680;2022-09-09T06:21:36;99516.20;;;12.70
70050;BMP180;57391;51.306;22.680;2022-09-09T06:24:05;99519.00;;;12.70
70050;BMP180;57391;51.306;22.680;2022-09-09T06:26:37;99518.40;;;12.70
70050;BMP180;57391;51.306;22.680;2022-09-09T06:29:11;99521.20;;;12.70
70050;BMP180;57391;51.306;22.680;2022-09-09T06:31:39;99520.40;;;12.70
70050;BMP180;57391;51.306;22.680;2022-09-09T06:34:15;99518.60;;;12.70
70050;BMP180;57391;51.306;22.680;2022-09-09T06:36:45;99528.20;;;12.70
70050;BMP180;57391;51.306;22.680;2022-09-09T06:39:13;99525.20;;;12.64
70050;BMP180;57391;51.306;22.680;2022-09-09T06:41:42;99527.60;;;12.66
70050;BMP180;57391;51.306;22.680;2022-09-09T06:44:19;99525.40;;;12.70
70050;BMP180;57391;51.306;22.680;2022-09-09T06:46:46;99527.40;;;12.70
70050;BMP180;57391;51.306;22.680;2022-09-09T06:49:16;99528.40;;;12.70
70050;BMP180;57391;51.306;22.680;2022-09-09T06:51:44;99527.60;;;12.70
70050;BMP180;57391;51.306;22.680;2022-09-09T06:54:13;99535.00;;;12.70
70050;BMP180;57391;51.306;22.680;2022-09-09T06:56:43;99545.20;;;12.70
70050;BMP180;57391;51.306;22.680;2022-09-09T06:59:16;99547.80;;;12.70
70050;BMP180;57391;51.306;22.680;2022-09-09T07:01:45;99548.20;;;12.70
70050;BMP180;57391;51.306;22.680;2022-09-09T07:04:14;99551.00;;;12.70
70050;BMP180;57391;51.306;22.680;2022-09-09T07:06:45;99554.60;;;12.70
70050;BMP180;57391;51.306;22.680;2022-09-09T07:09:19;99553.60;;;12.70
70050;BMP180;57391;51.306;22.680;2022-09-09T07:11:51;99557.80;;;12.72
70050;BMP180;57391;51.306;22.680;2022-09-09T07:14:22;99566.60;;;12.80
70050;BMP180;57391;51.306;22.680;2022-09-09T07:16:55;99563.60;;;12.80
70050;BMP180;57391;51.306;22.680;2022-09-09T07:19:22;99568.80;;;12.80
70050;BMP180;57391;51.306;22.680;2022-09-09T07:21:51;99566.60;;;12.80
70050;BMP180;57391;51.306;22.680;2022-09-09T07:24:19;99573.60;;;12.80
70050;BMP180;57391;51.306;22.680;2022-09-09T07:26:46;99578.20;;;12.80
70050;BMP180;57391;51.306;22.680;2022-09-09T07:29:13;99579.60;;;12.80
70050;BMP180;57391;51.306;22.680;2022-09-09T07:31:42;99575.60;;;12.80
70050;BMP180;57391;51.306;22.680;2022-09-09T07:34:12;99574.20;;;12.80
70050;BMP180;57391;51.306;22.680;2022-09-09T07:36:40;99578.00;;;12.82
70050;BMP180;57391;51.306;22.680;2022-09-09T07:39:13;99577.40;;;12.80
70050;BMP180;57391;51.306;22.680;2022-09-09T07:41:45;99587.00;;;12.80
70050;BMP180;57391;51.306;22.680;2022-09-09T07:44:17;99582.20;;;12.88
70050;BMP180;57391;51.306;22.680;2022-09-09T07:46:46;99581.60;;;12.90
70050;BMP180;57391;51.306;22.680;2022-09-09T07:49:17;99585.80;;;12.90
70050;BMP180;57391;51.306;22.680;2022-09-09T07:51:46;99584.20;;;12.92
70050;BMP180;57391;51.306;22.680;2022-09-09T07:54:18;99588.60;;;12.98
70050;BMP180;57391;51.306;22.680;2022-09-09T07:56:52;99588.60;;;13.00
70050;BMP180;57391;51.306;22.680;2022-09-09T07:59:20;99595.80;;;13.00
70050;BMP180;57391;51.306;22.680;2022-09-09T08:01:51;99593.60;;;13.00
70050;BMP180;57391;51.306;22.680;2022-09-09T08:04:23;99601.20;;;13.00
70050;BMP180;57391;51.306;22.680;2022-09-09T08:06:57;99598.40;;;13.00
70050;BMP180;57391;51.306;22.680;2022-09-09T08:09:26;99605.40;;;13.02
70050;BMP180;57391;51.306;22.680;2022-09-09T08:11:58;99605.00;;;13.10
70050;BMP180;57391;51.306;22.680;2022-09-09T08:14:25;99604.40;;;13.10
70050;BMP180;57391;51.306;22.680;2022-09-09T08:16:53;99610.80;;;13.10
70050;BMP180;57391;51.306;22.680;2022-09-09T08:19:22;99613.40;;;13.10
70050;BMP180;57391;51.306;22.680;2022-09-09T08:21:50;99618.20;;;13.20
70050;BMP180;57391;51.306;22.680;2022-09-09T08:24:17;99617.80;;;13.20
70050;BMP180;57391;51.306;22.680;2022-09-09T08:26:49;99615.00;;;13.20
70050;BMP180;57391;51.306;22.680;2022-09-09T08:29:18;99615.20;;;13.16
70050;BMP180;57391;51.306;22.680;2022-09-09T08:31:50;99615.80;;;13.18
70050;BMP180;57391;51.306;22.680;2022-09-09T08:34:21;99617.00;;;13.20
70050;BMP180;57391;51.306;22.680;2022-09-09T08:36:51;99614.00;;;13.20
70050;BMP180;57391;51.306;22.680;2022-09-09T08:39:21;99620.00;;;13.20
70050;BMP180;57391;51.306;22.680;2022-09-09T08:51:03;99616.40;;;13.30
70050;BMP180;57391;51.306;22.680;2022-09-09T08:53:44;99621.60;;;13.30
70050;BMP180;57391;51.306;22.680;2022-09-09T08:56:19;99623.00;;;13.30
70050;BMP180;57391;51.306;22.680;2022-09-09T08:58:55;99620.40;;;13.40
70050;BMP180;57391;51.306;22.680;2022-09-09T09:07:28;99626.00;;;13.42
70050;BMP180;57391;51.306;22.680;2022-09-09T09:13:01;99631.00;;;13.50
70050;BMP180;57391;51.306;22.680;2022-09-09T09:15:36;99636.60;;;13.50
70050;BMP180;57391;51.306;22.680;2022-09-09T09:18:05;99631.40;;;13.50
70050;BMP180;57391;51.306;22.680;2022-09-09T09:21:02;99636.20;;;13.50
70050;BMP180;57391;51.306;22.680;2022-09-09T09:23:47;99634.40;;;13.54
70050;BMP180;57391;51.306;22.680;2022-09-09T09:26:15;99628.40;;;13.52
70050;BMP180;57391;51.306;22.680;2022-09-09T09:28:42;99632.80;;;13.60
70050;BMP180;57391;51.306;22.680;2022-09-09T09:31:13;99634.00;;;13.60
70050;BMP180;57391;51.306;22.680;2022-09-09T09:33:50;99634.80;;;13.60
70050;BMP180;57391;51.306;22.680;2022-09-09T09:36:38;99636.00;;;13.60
70050;BMP180;57391;51.306;22.680;2022-09-09T09:39:06;99636.80;;;13.60
70050;BMP180;57391;51.306;22.680;2022-09-09T09:41:42;99637.00;;;13.58
70050;BMP180;57391;51.306;22.680;2022-09-09T09:44:40;99643.40;;;13.50
70050;BMP180;57391;51.306;22.680;2022-09-09T09:47:22;99639.40;;;13.50
70050;BMP180;57391;51.306;22.680;2022-09-09T09:50:18;99640.20;;;13.58
70050;BMP180;57391;51.306;22.680;2022-09-09T09:52:56;99634.80;;;13.50
70050;BMP180;57391;51.306;22.680;2022-09-09T09:55:25;99638.80;;;13.54
70050;BMP180;57391;51.306;22.680;2022-09-09T09:57:53;99641.00;;;13.60
70050;BMP180;57391;51.306;22.680;2022-09-09T10:00:23;99643.00;;;13.60
70050;BMP180;57391;51.306;22.680;2022-09-09T10:03:00;99641.00;;;13.60
70050;BMP180;57391;51.306;22.680;2022-09-09T10:05:31;99644.80;;;13.60
70050;BMP180;57391;51.306;22.680;2022-09-09T10:08:15;99643.60;;;13.66
70050;BMP180;57391;51.306;22.680;2022-09-09T10:14:13;99644.80;;;13.80
70050;BMP180;57391;51.306;22.680;2022-09-09T10:22:51;99646.80;;;13.90
70050;BMP180;57391;51.306;22.680;2022-09-09T10:40:33;99663.00;;;14.00
70050;BMP180;57391;51.306;22.680;2022-09-09T10:52:40;99671.80;;;14.00
70050;BMP180;57391;51.306;22.680;2022-09-09T10:57:51;99679.20;;;14.00
70050;BMP180;57391;51.306;22.680;2022-09-09T11:00:31;99678.00;;;14.00
70050;BMP180;57391;51.306;22.680;2022-09-09T11:03:04;99683.60;;;14.10
70050;BMP180;57391;51.306;22.680;2022-09-09T11:05:44;99677.60;;;14.10
70050;BMP180;57391;51.306;22.680;2022-09-09T11:08:22;99670.40;;;14.10
70050;BMP180;57391;51.306;22.680;2022-09-09T11:11:26;99672.60;;;14.14
70050;BMP180;57391;51.306;22.680;2022-09-09T11:14:33;99677.20;;;14.20
70050;BMP180;57391;51.306;22.680;2022-09-09T11:17:09;99672.00;;;14.20
70050;BMP180;57391;51.306;22.680;2022-09-09T11:19:42;99669.40;;;14.20
70050;BMP180;57391;51.306;22.680;2022-09-09T11:22:50;99673.80;;;14.20
70050;BMP180;57391;51.306;22.680;2022-09-09T11:25:34;99672.80;;;14.26
70050;BMP180;57391;51.306;22.680;2022-09-09T11:29:00;99666.80;;;14.30
70050;BMP180;57391;51.306;22.680;2022-09-09T11:31:47;99671.40;;;14.30
70050;BMP180;57391;51.306;22.680;2022-09-09T11:37:35;99669.00;;;14.30
70050;BMP180;57391;51.306;22.680;2022-09-09T11:40:17;99676.40;;;14.30
70050;BMP180;57391;51.306;22.680;2022-09-09T11:42:47;99678.40;;;14.30
70050;BMP180;57391;51.306;22.680;2022-09-09T11:47:58;99683.60;;;14.30
70050;BMP180;57391;51.306;22.680;2022-09-09T11:53:17;99684.40;;;14.30
70050;BMP180;57391;51.306;22.680;2022-09-09T11:56:00;99690.60;;;14.40
70050;BMP180;57391;51.306;22.680;2022-09-09T11:58:29;99689.40;;;14.36
70050;BMP180;57391;51.306;22.680;2022-09-09T12:00:59;99694.00;;;14.40
70050;BMP180;57391;51.306;22.680;2022-09-09T12:03:47;99697.20;;;14.40
70050;BMP180;57391;51.306;22.680;2022-09-09T12:06:31;99697.40;;;14.40
70050;BMP180;57391;51.306;22.680;2022-09-09T12:11:52;99698.80;;;14.40
70050;BMP180;57391;51.306;22.680;2022-09-09T12:14:43;99701.00;;;14.40
70050;BMP180;57391;51.306;22.680;2022-09-09T12:17:27;99706.20;;;14.40
70050;BMP180;57391;51.306;22.680;2022-09-09T12:20:20;99704.60;;;14.40
70050;BMP180;57391;51.306;22.680;2022-09-09T12:31:54;99719.40;;;14.40
70050;BMP180;57391;51.306;22.680;2022-09-09T12:34:39;99715.40;;;14.32
70050;BMP180;57391;51.306;22.680;2022-09-09T12:40:20;99714.40;;;14.38
70050;BMP180;57391;51.306;22.680;2022-09-09T12:42:48;99711.40;;;14.32
70050;BMP180;57391;51.306;22.680;2022-09-09T12:45:25;99709.20;;;14.30
70050;BMP180;57391;51.306;22.680;2022-09-09T12:48:03;99707.00;;;14.30
70050;BMP180;57391;51.306;22.680;2022-09-09T12:50:37;99711.40;;;14.30
70050;BMP180;57391;51.306;22.680;2022-09-09T12:53:13;99712.40;;;14.30
70050;BMP180;57391;51.306;22.680;2022-09-09T12:55:52;99717.20;;;14.30
70050;BMP180;57391;51.306;22.680;2022-09-09T12:58:20;99716.60;;;14.30
70050;BMP180;57391;51.306;22.680;2022-09-09T13:00:53;99715.80;;;14.30
70050;BMP180;57391;51.306;22.680;2022-09-09T13:03:24;99719.40;;;14.30
70050;BMP180;57391;51.306;22.680;2022-09-09T13:05:53;99721.60;;;14.38
70050;BMP180;57391;51.306;22.680;2022-09-09T13:08:20;99721.80;;;14.36
70050;BMP180;57391;51.306;22.680;2022-09-09T13:10:58;99718.60;;;14.40
70050;BMP180;57391;51.306;22.680;2022-09-09T13:13:41;99720.00;;;14.40
70050;BMP180;57391;51.306;22.680;2022-09-09T13:16:41;99719.40;;;14.40
70050;BMP180;57391;51.306;22.680;2022-09-09T13:19:14;99717.00;;;14.40
70050;BMP180;57391;51.306;22.680;2022-09-09T13:21:43;99714.00;;;14.40
70050;BMP180;57391;51.306;22.680;2022-09-09T13:26:57;99714.40;;;14.50
70050;BMP180;57391;51.306;22.680;2022-09-09T13:29:25;99716.00;;;14.50
70050;BMP180;57391;51.306;22.680;2022-09-09T13:31:53;99714.40;;;14.50
70050;BMP180;57391;51.306;22.680;2022-09-09T13:34:34;99713.60;;;14.50
70050;BMP180;57391;51.306;22.680;2022-09-09T13:37:22;99714.80;;;14.50
70050;BMP180;57391;51.306;22.680;2022-09-09T13:39:54;99715.80;;;14.50
70050;BMP180;57391;51.306;22.680;2022-09-09T13:42:28;99714.00;;;14.50
70050;BMP180;57391;51.306;22.680;2022-09-09T13:44:58;99706.40;;;14.52
70050;BMP180;57391;51.306;22.680;2022-09-09T13:47:32;99700.80;;;14.58
70050;BMP180;57391;51.306;22.680;2022-09-09T13:52:57;99691.80;;;14.60
70050;BMP180;57391;51.306;22.680;2022-09-09T13:55:28;99690.40;;;14.56
70050;BMP180;57391;51.306;22.680;2022-09-09T13:58:03;99689.20;;;14.58
70050;BMP180;57391;51.306;22.680;2022-09-09T14:00:34;99695.80;;;14.50
70050;BMP180;57391;51.306;22.680;2022-09-09T14:03:01;99693.40;;;14.50
70050;BMP180;57391;51.306;22.680;2022-09-09T14:05:31;99693.40;;;14.52
70050;BMP180;57391;51.306;22.680;2022-09-09T14:08:00;99695.60;;;14.60
70050;BMP180;57391;51.306;22.680;2022-09-09T14:10:27;99696.60;;;14.60
70050;BMP180;57391;51.306;22.680;2022-09-09T14:12:54;99690.60;;;14.60
70050;BMP180;57391;51.306;22.680;2022-09-09T14:15:21;99690.00;;;14.60
70050;BMP180;57391;51.306;22.680;2022-09-09T14:17:48;99694.80;;;14.60
70050;BMP180;57391;51.306;22.680;2022-09-09T14:20:16;99693.60;;;14.56
70050;BMP180;57391;51.306;22.680;2022-09-09T14:22:44;99693.60;;;14.60
70050;BMP180;57391;51.306;22.680;2022-09-09T14:25:12;99696.40;;;14.56
70050;BMP180;57391;51.306;22.680;2022-09-09T14:27:41;99697.40;;;14.52
70050;BMP180;57391;51.306;22.680;2022-09-09T14:30:10;99695.60;;;14.50
70050;BMP180;57391;51.306;22.680;2022-09-09T14:32:37;99704.60;;;14.50
70050;BMP180;57391;51.306;22.680;2022-09-09T14:35:04;99706.80;;;14.50
70050;BMP180;57391;51.306;22.680;2022-09-09T14:37:31;99705.00;;;14.50
70050;BMP180;57391;51.306;22.680;2022-09-09T14:39:58;99705.20;;;14.60
70050;BMP180;57391;51.306;22.680;2022-09-09T14:42:25;99705.80;;;14.60
70050;BMP180;57391;51.306;22.680;2022-09-09T14:44:53;99704.60;;;14.60
70050;BMP180;57391;51.306;22.680;2022-09-09T14:47:20;99698.80;;;14.60
70050;BMP180;57391;51.306;22.680;2022-09-09T14:49:48;99695.60;;;14.60
70050;BMP180;57391;51.306;22.680;2022-09-09T14:52:16;99691.80;;;14.60
70050;BMP180;57391;51.306;22.680;2022-09-09T14:54:44;99691.60;;;14.60
70050;BMP180;57391;51.306;22.680;2022-09-09T14:57:12;99706.60;;;14.60
70050;BMP180;57391;51.306;22.680;2022-09-09T14:59:39;99701.80;;;14.60
70050;BMP180;57391;51.306;22.680;2022-09-09T15:02:08;99702.80;;;14.60
70050;BMP180;57391;51.306;22.680;2022-09-09T15:04:36;99700.40;;;14.60
70050;BMP180;57391;51.306;22.680;2022-09-09T15:07:03;99702.00;;;14.60
70050;BMP180;57391;51.306;22.680;2022-09-09T15:09:32;99705.60;;;14.60
70050;BMP180;57391;51.306;22.680;2022-09-09T15:11:59;99709.00;;;14.60
70050;BMP180;57391;51.306;22.680;2022-09-09T15:14:27;99714.80;;;14.60
70050;BMP180;57391;51.306;22.680;2022-09-09T15:16:54;99715.40;;;14.50
70050;BMP180;57391;51.306;22.680;2022-09-09T15:19:21;99711.40;;;14.50
70050;BMP180;57391;51.306;22.680;2022-09-09T15:21:48;99713.80;;;14.50
70050;BMP180;57391;51.306;22.680;2022-09-09T15:24:15;99710.40;;;14.50
70050;BMP180;57391;51.306;22.680;2022-09-09T15:26:42;99716.60;;;14.50
70050;BMP180;57391;51.306;22.680;2022-09-09T15:29:10;99717.60;;;14.46
70050;BMP180;57391;51.306;22.680;2022-09-09T15:31:37;99720.00;;;14.48
70050;BMP180;57391;51.306;22.680;2022-09-09T15:34:07;99722.00;;;14.48
70050;BMP180;57391;51.306;22.680;2022-09-09T15:36:43;99713.40;;;14.48
70050;BMP180;57391;51.306;22.680;2022-09-09T15:39:14;99712.00;;;14.40
70050;BMP180;57391;51.306;22.680;2022-09-09T15:41:44;99710.40;;;14.42
70050;BMP180;57391;51.306;22.680;2022-09-09T15:44:13;99715.40;;;14.48
70050;BMP180;57391;51.306;22.680;2022-09-09T15:46:46;99716.00;;;14.48
70050;BMP180;57391;51.306;22.680;2022-09-09T15:49:21;99714.40;;;14.40
70050;BMP180;57391;51.306;22.680;2022-09-09T15:51:57;99712.80;;;14.42
70050;BMP180;57391;51.306;22.680;2022-09-09T15:54:26;99712.00;;;14.44
70050;BMP180;57391;51.306;22.680;2022-09-09T15:56:56;99715.20;;;14.50
70050;BMP180;57391;51.306;22.680;2022-09-09T15:59:26;99720.20;;;14.50
70050;BMP180;57391;51.306;22.680;2022-09-09T16:01:55;99723.60;;;14.50
70050;BMP180;57391;51.306;22.680;2022-09-09T16:04:25;99723.20;;;14.50
70050;BMP180;57391;51.306;22.680;2022-09-09T16:06:59;99719.00;;;14.50
70050;BMP180;57391;51.306;22.680;2022-09-09T16:09:28;99711.00;;;14.50
70050;BMP180;57391;51.306;22.680;2022-09-09T16:11:58;99702.80;;;14.50
70050;BMP180;57391;51.306;22.680;2022-09-09T16:14:26;99709.80;;;14.50
70050;BMP180;57391;51.306;22.680;2022-09-09T16:16:54;99710.60;;;14.56